Time;durP1;ratioP1;P1;durP2;ratioP2;P2;SDS_P1;SDS_P2;PMS_P1;PMS_P2;Temp;Humidity;BMP_temperature;BMP_pressure;BME280_temperature;BME280_humidity;BME280_pressure;Samples;Min_cycle;Max_cycle;Signal;HPM_P1;HPM_P2
2024/01/17 00:00:35;;;;;;;16.92;6.78;;;;;;;;;;5074415;28;20243;-61
2024/01/17 00:03:02;;;;;;;7.35;5.90;;;;;;;;;;5074438;28;20213;-61
2024/01/17 00:05:31;;;;;;;6.70;5.70;;;;;;;;;;5074270;28;20280;-61
2024/01/17 00:07:58;;;;;;;9.35;5.80;;;;;;;;;;5074404;28;20620;-61
2024/01/17 00:10:24;;;;;;;9.73;6.00;;;;;;;;;;5074236;28;20288;-61
2024/01/17 00:12:52;;;;;;;8.30;6.00;;;;;;;;;;5074203;28;20200;-61
2024/01/17 00:15:19;;;;;;;7.47;5.45;;;;;;;;;;5074167;28;20243;-61
2024/01/17 00:17:47;;;;;;;9.80;5.72;;;;;;;;;;5074036;28;20664;-61
2024/01/17 00:20:14;;;;;;;8.52;5.65;;;;;;;;;;5074219;28;20213;-61
2024/01/17 00:22:43;;;;;;;8.30;7.20;;;;;;;;;;5074243;28;20220;-61
2024/01/17 00:25:10;;;;;;;11.52;7.45;;;;;;;;;;5074432;28;20195;-61
2024/01/17 00:27:37;;;;;;;8.25;7.20;;;;;;;;;;5074107;28;20193;-61
2024/01/17 00:30:04;;;;;;;10.63;6.18;;;;;;;;;;5073857;28;20201;-61
2024/01/17 00:32:32;;;;;;;7.25;5.88;;;;;;;;;;5073804;28;20216;-61
2024/01/17 00:34:59;;;;;;;9.80;5.72;;;;;;;;;;5073948;28;20283;-61
2024/01/17 00:37:26;;;;;;;8.13;5.68;;;;;;;;;;5073907;28;20276;-61
2024/01/17 00:39:54;;;;;;;8.65;6.47;;;;;;;;;;5073879;28;20193;-61
2024/01/17 00:42:21;;;;;;;8.20;6.60;;;;;;;;;;5073698;28;20671;-61
2024/01/17 00:44:48;;;;;;;9.95;6.25;;;;;;;;;;5073678;28;20556;-61
2024/01/17 00:47:15;;;;;;;9.43;6.22;;;;;;;;;;5073764;28;20276;-61
2024/01/17 00:49:42;;;;;;;6.07;5.47;;;;;;;;;;5073756;28;20189;-61
2024/01/17 00:52:09;;;;;;;8.52;5.95;;;;;;;;;;5073673;28;20195;-61
2024/01/17 00:54:36;;;;;;;9.77;5.90;;;;;;;;;;5073516;28;20288;-61
2024/01/17 00:57:05;;;;;;;7.40;5.97;;;;;;;;;;5073341;28;20224;-61
2024/01/17 00:59:32;;;;;;;8.32;6.30;;;;;;;;;;5073218;28;20264;-61
2024/01/17 01:01:59;;;;;;;10.93;6.25;;;;;;;;;;5073317;28;20276;-61
2024/01/17 01:04:26;;;;;;;9.57;7.18;;;;;;;;;;5073321;28;20250;-61
2024/01/17 01:06:52;;;;;;;10.85;6.13;;;;;;;;;;5073265;28;20271;-61
2024/01/17 01:09:20;;;;;;;10.45;6.72;;;;;;;;;;5073137;28;20203;-61
2024/01/17 01:11:47;;;;;;;6.43;5.82;;;;;;;;;;5073055;28;20189;-61
2024/01/17 01:14:15;;;;;;;8.60;5.82;;;;;;;;;;5072782;28;20272;-61
2024/01/17 01:16:43;;;;;;;9.88;5.82;;;;;;;;;;5073224;28;20190;-61
2024/01/17 01:19:10;;;;;;;6.18;5.57;;;;;;;;;;5073008;28;20185;-61
2024/01/17 01:21:37;;;;;;;9.02;6.90;;;;;;;;;;5072615;28;20231;-61
2024/01/17 01:24:04;;;;;;;6.85;6.03;;;;;;;;;;5072760;28;20580;-61
2024/01/17 01:26:31;;;;;;;7.88;6.30;;;;;;;;;;5072937;28;20623;-62
2024/01/17 01:28:58;;;;;;;8.70;6.47;;;;;;;;;;5072860;28;20192;-61
2024/01/17 01:31:26;;;;;;;8.43;6.78;;;;;;;;;;5072855;28;20225;-61
2024/01/17 01:33:53;;;;;;;9.55;6.53;;;;;;;;;;5072856;28;20194;-61
2024/01/17 01:36:20;;;;;;;8.57;7.40;;;;;;;;;;5072766;28;20291;-61
2024/01/17 01:38:47;;;;;;;8.55;7.28;;;;;;;;;;5072651;28;20192;-61
2024/01/17 01:41:14;;;;;;;11.90;7.43;;;;;;;;;;5072459;28;20222;-61
2024/01/17 01:43:41;;;;;;;11.77;7.60;;;;;;;;;;5072657;28;20292;-61
2024/01/17 01:46:13;;;;;;;12.23;6.85;;;;;;;;;;5072684;28;20193;-61
2024/01/17 01:48:42;;;;;;;11.98;6.57;;;;;;;;;;5072538;28;20193;-61
2024/01/17 01:51:09;;;;;;;11.60;7.15;;;;;;;;;;5072696;28;20220;-61
2024/01/17 01:53:37;;;;;;;9.02;7.75;;;;;;;;;;5072744;28;20292;-61
2024/01/17 01:56:05;;;;;;;9.70;6.13;;;;;;;;;;5072714;28;20196;-61
2024/01/17 01:58:35;;;;;;;8.88;6.03;;;;;;;;;;5075309;28;20580;-61
2024/01/17 02:01:02;;;;;;;11.30;7.40;;;;;;;;;;5076593;28;20496;-61
2024/01/17 02:03:30;;;;;;;8.30;6.80;;;;;;;;;;5076517;28;20546;-61
2024/01/17 02:05:59;;;;;;;9.65;6.78;;;;;;;;;;5076488;28;20599;-61
2024/01/17 02:08:26;;;;;;;8.13;5.82;;;;;;;;;;5076384;28;20191;-61
2024/01/17 02:10:53;;;;;;;8.10;6.10;;;;;;;;;;5076559;28;20625;-61
2024/01/17 02:13:20;;;;;;;10.40;6.70;;;;;;;;;;5076278;28;20663;-61
2024/01/17 02:15:47;;;;;;;11.32;6.70;;;;;;;;;;5076560;28;20189;-61
2024/01/17 02:18:14;;;;;;;8.90;6.40;;;;;;;;;;5076240;28;20203;-61
2024/01/17 02:20:41;;;;;;;7.68;6.40;;;;;;;;;;5076014;28;20221;-61
2024/01/17 02:23:23;;;;;;;9.40;7.45;;;;;;;;;;5076370;28;20223;-61
2024/01/17 02:25:52;;;;;;;8.57;7.40;;;;;;;;;;5076259;28;20579;-61
2024/01/17 02:28:19;;;;;;;7.22;5.88;;;;;;;;;;5076105;28;20189;-61
2024/01/17 02:30:46;;;;;;;8.00;7.20;;;;;;;;;;5075965;28;20185;-61
2024/01/17 02:33:13;;;;;;;9.77;7.25;;;;;;;;;;5075907;28;20189;-61
2024/01/17 02:35:40;;;;;;;8.77;6.43;;;;;;;;;;5076154;28;20530;-61
2024/01/17 02:38:07;;;;;;;7.85;6.32;;;;;;;;;;5076007;28;20195;-61
2024/01/17 02:40:34;;;;;;;7.95;6.25;;;;;;;;;;5076108;28;20235;-61
2024/01/17 02:43:03;;;;;;;9.45;6.82;;;;;;;;;;5075768;28;20312;-61
2024/01/17 02:45:30;;;;;;;10.95;6.53;;;;;;;;;;5075793;28;20224;-61
2024/01/17 02:47:57;;;;;;;8.25;6.88;;;;;;;;;;5075640;28;20280;-61
2024/01/17 02:50:24;;;;;;;9.50;6.75;;;;;;;;;;5075803;28;20254;-61
2024/01/17 02:52:53;;;;;;;9.73;6.75;;;;;;;;;;5075683;28;20202;-61
2024/01/17 02:55:22;;;;;;;7.18;6.07;;;;;;;;;;5075578;28;20587;-61
2024/01/17 02:57:49;;;;;;;7.68;6.25;;;;;;;;;;5075647;28;20560;-61
2024/01/17 03:00:18;;;;;;;9.13;6.90;;;;;;;;;;5075324;28;20193;-61
2024/01/17 03:02:45;;;;;;;12.02;6.72;;;;;;;;;;5075524;28;20229;-61
2024/01/17 03:05:12;;;;;;;8.93;6.97;;;;;;;;;;5075705;28;20239;-61
2024/01/17 03:07:39;;;;;;;10.80;6.35;;;;;;;;;;5075375;28;20663;-61
2024/01/17 03:10:09;;;;;;;8.98;7.00;;;;;;;;;;5073991;28;20197;-61
2024/01/17 03:12:35;;;;;;;10.65;7.65;;;;;;;;;;5075328;28;20197;-61
2024/01/17 03:15:03;;;;;;;7.78;7.05;;;;;;;;;;5075184;28;20191;-61
2024/01/17 03:17:31;;;;;;;8.00;6.45;;;;;;;;;;5075044;28;20189;-61
2024/01/17 03:19:58;;;;;;;11.38;7.78;;;;;;;;;;5075023;28;20718;-61
2024/01/17 03:22:25;;;;;;;10.85;7.00;;;;;;;;;;5075296;28;20276;-61
2024/01/17 03:24:51;;;;;;;10.07;6.82;;;;;;;;;;5075174;28;20215;-61
2024/01/17 03:27:18;;;;;;;10.23;7.97;;;;;;;;;;5075066;28;20221;-61
2024/01/17 03:29:45;;;;;;;9.75;7.50;;;;;;;;;;5075310;28;20667;-61
2024/01/17 03:32:12;;;;;;;8.45;7.10;;;;;;;;;;5075225;28;20193;-61
2024/01/17 03:34:40;;;;;;;10.23;6.85;;;;;;;;;;5075216;28;20193;-61
2024/01/17 03:37:07;;;;;;;8.00;7.18;;;;;;;;;;5075082;28;20289;-61
2024/01/17 03:39:35;;;;;;;8.25;6.57;;;;;;;;;;5074913;28;20193;-61
2024/01/17 03:42:01;;;;;;;8.52;6.20;;;;;;;;;;5074724;28;20220;-61
2024/01/17 03:44:28;;;;;;;7.20;5.95;;;;;;;;;;5074639;28;20212;-61
2024/01/17 03:46:55;;;;;;;9.60;5.90;;;;;;;;;;5074866;28;20548;-61
2024/01/17 03:49:22;;;;;;;8.15;6.35;;;;;;;;;;5074818;28;20276;-61
2024/01/17 03:51:52;;;;;;;7.88;7.05;;;;;;;;;;5074619;28;20189;-61
2024/01/17 03:54:19;;;;;;;6.90;6.20;;;;;;;;;;5074668;28;20224;-61
2024/01/17 03:56:46;;;;;;;13.43;6.82;;;;;;;;;;5074445;28;20193;-61
2024/01/17 03:59:13;;;;;;;9.82;7.60;;;;;;;;;;5074586;28;20194;-61
2024/01/17 04:01:44;;;;;;;10.55;6.75;;;;;;;;;;5074456;28;20199;-61
2024/01/17 04:04:11;;;;;;;8.40;6.22;;;;;;;;;;5074337;28;20577;-61
2024/01/17 04:06:38;;;;;;;9.90;7.28;;;;;;;;;;5074205;28;20190;-61
2024/01/17 04:09:06;;;;;;;10.80;7.15;;;;;;;;;;5074170;28;20278;-61
2024/01/17 04:11:33;;;;;;;8.93;6.60;;;;;;;;;;5074444;28;20660;-61
2024/01/17 04:14:00;;;;;;;11.25;6.63;;;;;;;;;;5074161;28;20732;-61
2024/01/17 04:16:27;;;;;;;9.88;7.30;;;;;;;;;;5074386;28;20185;-61
2024/01/17 04:18:54;;;;;;;9.60;7.15;;;;;;;;;;5074192;28;20280;-61
2024/01/17 04:21:22;;;;;;;7.10;6.03;;;;;;;;;;5073347;28;20696;-61
2024/01/17 04:23:49;;;;;;;10.10;6.68;;;;;;;;;;5073779;28;20221;-61
2024/01/17 04:26:23;;;;;;;9.50;6.30;;;;;;;;;;5074013;28;20189;-61
2024/01/17 04:28:50;;;;;;;8.85;6.20;;;;;;;;;;5073963;28;20190;-61
2024/01/17 04:31:24;;;;;;;8.23;7.20;;;;;;;;;;5073876;28;20479;-61
2024/01/17 04:33:51;;;;;;;11.18;7.53;;;;;;;;;;5073858;28;20611;-61
2024/01/17 04:36:18;;;;;;;8.45;5.95;;;;;;;;;;5073784;28;20189;-61
2024/01/17 04:38:45;;;;;;;9.15;6.68;;;;;;;;;;5073798;28;20199;-61
2024/01/17 04:41:12;;;;;;;7.38;6.15;;;;;;;;;;5073793;28;20201;-61
2024/01/17 04:43:41;;;;;;;6.97;6.13;;;;;;;;;;5073808;28;20208;-61
2024/01/17 04:46:09;;;;;;;9.30;6.38;;;;;;;;;;5073805;28;20236;-61
2024/01/17 04:48:36;;;;;;;11.75;6.85;;;;;;;;;;5073661;28;20544;-61
2024/01/17 04:51:04;;;;;;;11.60;6.95;;;;;;;;;;5073557;28;20602;-61
2024/01/17 04:53:32;;;;;;;9.85;6.13;;;;;;;;;;5073759;28;20193;-61
2024/01/17 04:55:59;;;;;;;11.45;6.57;;;;;;;;;;5073641;28;20216;-61
2024/01/17 04:58:26;;;;;;;8.57;6.40;;;;;;;;;;5073628;28;20612;-61
2024/01/17 05:00:55;;;;;;;8.45;6.25;;;;;;;;;;5073558;28;20186;-61
2024/01/17 05:03:21;;;;;;;8.20;5.80;;;;;;;;;;5073231;28;20220;-61
2024/01/17 05:05:48;;;;;;;7.45;5.88;;;;;;;;;;5073569;28;20464;-61
2024/01/17 05:08:16;;;;;;;6.95;6.22;;;;;;;;;;5073463;28;20189;-61
2024/01/17 05:10:44;;;;;;;13.13;6.00;;;;;;;;;;5073298;28;20280;-61
2024/01/17 05:13:11;;;;;;;9.07;6.32;;;;;;;;;;5073290;28;20185;-61
2024/01/17 05:15:38;;;;;;;6.75;5.85;;;;;;;;;;5073265;28;20194;-61
2024/01/17 05:18:07;;;;;;;7.75;6.15;;;;;;;;;;5073193;28;20196;-61
2024/01/17 05:20:34;;;;;;;9.57;6.43;;;;;;;;;;5072898;28;20697;-61
2024/01/17 05:23:01;;;;;;;11.15;6.55;;;;;;;;;;5073219;28;20191;-61
2024/01/17 05:25:28;;;;;;;6.28;5.65;;;;;;;;;;5073176;28;20308;-61
2024/01/17 05:27:55;;;;;;;5.90;5.28;;;;;;;;;;5073017;28;20197;-61
2024/01/17 05:30:23;;;;;;;6.10;5.40;;;;;;;;;;5072915;28;20548;-61
2024/01/17 05:32:50;;;;;;;7.40;5.32;;;;;;;;;;5072413;28;20189;-61
2024/01/17 05:35:18;;;;;;;8.15;5.90;;;;;;;;;;5073081;28;20301;-61
2024/01/17 05:37:46;;;;;;;8.57;5.88;;;;;;;;;;5073043;28;20235;-61
2024/01/17 05:40:13;;;;;;;9.35;6.70;;;;;;;;;;5072977;28;20189;-61
2024/01/17 05:42:41;;;;;;;10.70;6.93;;;;;;;;;;5072825;28;20185;-61
2024/01/17 05:45:08;;;;;;;10.25;5.28;;;;;;;;;;5072733;28;20311;-61
2024/01/17 05:47:35;;;;;;;6.45;5.65;;;;;;;;;;5072804;28;20671;-61
2024/01/17 05:50:03;;;;;;;9.75;6.00;;;;;;;;;;5072907;28;20190;-61
2024/01/17 05:52:31;;;;;;;7.45;6.28;;;;;;;;;;5072783;28;20199;-61
2024/01/17 05:54:58;;;;;;;6.18;4.88;;;;;;;;;;5072758;28;20553;-61
2024/01/17 05:57:25;;;;;;;9.30;5.40;;;;;;;;;;5073217;28;20276;-61
2024/01/17 05:59:52;;;;;;;9.15;6.28;;;;;;;;;;5072805;28;20280;-62
2024/01/17 06:02:19;;;;;;;7.50;5.80;;;;;;;;;;5072832;28;20191;-61
2024/01/17 06:04:46;;;;;;;6.43;5.28;;;;;;;;;;5072602;28;20257;-61
2024/01/17 06:07:14;;;;;;;6.47;5.28;;;;;;;;;;5072532;28;20616;-61
2024/01/17 06:09:43;;;;;;;7.50;5.18;;;;;;;;;;5072623;28;20270;-61
2024/01/17 06:12:10;;;;;;;6.78;5.93;;;;;;;;;;5072486;28;20189;-61
2024/01/17 06:14:39;;;;;;;8.07;5.15;;;;;;;;;;5072797;28;20197;-61
2024/01/17 06:17:06;;;;;;;5.60;4.90;;;;;;;;;;5072482;28;20714;-61
2024/01/17 06:19:33;;;;;;;73.65;28.83;;;;;;;;;;5072586;28;20272;-61
2024/01/17 06:22:01;;;;;;;9.68;6.97;;;;;;;;;;5072302;28;20313;-61
2024/01/17 06:24:28;;;;;;;8.20;5.82;;;;;;;;;;5072340;28;20217;-61
2024/01/17 06:26:56;;;;;;;7.00;4.60;;;;;;;;;;5072345;28;20185;-61
2024/01/17 06:29:25;;;;;;;6.40;4.90;;;;;;;;;;5072577;28;20189;-61
2024/01/17 06:31:52;;;;;;;5.07;4.32;;;;;;;;;;5072507;28;20285;-61
2024/01/17 06:34:19;;;;;;;6.88;5.10;;;;;;;;;;5072407;28;20193;-61
2024/01/17 06:36:46;;;;;;;8.10;5.15;;;;;;;;;;5072373;28;20196;-61
2024/01/17 06:39:13;;;;;;;9.15;5.68;;;;;;;;;;5072137;28;20216;-61
2024/01/17 06:41:40;;;;;;;5.53;4.80;;;;;;;;;;5072386;28;20192;-61
2024/01/17 06:44:09;;;;;;;7.35;4.63;;;;;;;;;;5074228;28;20245;-61
2024/01/17 06:46:36;;;;;;;7.95;6.28;;;;;;;;;;5075864;28;20636;-61
2024/01/17 06:49:03;;;;;;;6.35;5.70;;;;;;;;;;5075851;28;20189;-61
2024/01/17 06:51:30;;;;;;;8.38;4.60;;;;;;;;;;5075773;28;20239;-61
2024/01/17 06:53:58;;;;;;;10.55;5.25;;;;;;;;;;5075992;28;20200;-61
2024/01/17 06:56:25;;;;;;;8.20;5.20;;;;;;;;;;5075959;28;20212;-61
2024/01/17 06:58:52;;;;;;;7.15;5.75;;;;;;;;;;5075816;28;20279;-61
2024/01/17 07:01:20;;;;;;;6.35;5.57;;;;;;;;;;5075642;28;20189;-61
2024/01/17 07:03:47;;;;;;;4.85;4.45;;;;;;;;;;5075442;28;20186;-61
2024/01/17 07:06:14;;;;;;;6.05;5.25;;;;;;;;;;5075410;28;20239;-61
2024/01/17 07:08:41;;;;;;;6.65;4.97;;;;;;;;;;5075700;28;20189;-61
2024/01/17 07:11:10;;;;;;;5.25;4.70;;;;;;;;;;5075704;28;20277;-61
2024/01/17 07:13:37;;;;;;;9.02;5.10;;;;;;;;;;5075924;28;20595;-61
2024/01/17 07:16:04;;;;;;;7.55;5.00;;;;;;;;;;5075471;28;20597;-61
2024/01/17 07:18:33;;;;;;;5.68;5.07;;;;;;;;;;5075355;28;20276;-61
2024/01/17 07:21:00;;;;;;;6.72;4.80;;;;;;;;;;5075093;28;20221;-61
2024/01/17 07:23:27;;;;;;;6.50;4.70;;;;;;;;;;5075189;28;20189;-61
2024/01/17 07:25:54;;;;;;;5.90;4.90;;;;;;;;;;5075309;28;20217;-61
2024/01/17 07:28:21;;;;;;;5.32;4.32;;;;;;;;;;5075285;28;20192;-60
2024/01/17 07:30:48;;;;;;;5.38;4.78;;;;;;;;;;5075199;28;20193;-60
2024/01/17 07:33:15;;;;;;;5.78;4.93;;;;;;;;;;5075030;28;20733;-61
2024/01/17 07:35:43;;;;;;;9.27;5.22;;;;;;;;;;5075261;28;20288;-62
2024/01/17 07:38:10;;;;;;;5.13;4.63;;;;;;;;;;5075233;28;20246;-60
2024/01/17 07:40:37;;;;;;;7.72;4.40;;;;;;;;;;5074904;28;20720;-60
2024/01/17 07:43:04;;;;;;;4.95;4.40;;;;;;;;;;5074928;28;20624;-62
2024/01/17 07:45:31;;;;;;;5.40;4.78;;;;;;;;;;5074772;28;20277;-60
2024/01/17 07:47:58;;;;;;;6.80;4.47;;;;;;;;;;5074774;28;20284;-60
2024/01/17 07:50:26;;;;;;;9.10;5.35;;;;;;;;;;5074843;28;20193;-61
2024/01/17 07:52:55;;;;;;;8.18;4.47;;;;;;;;;;5074979;28;20263;-60
2024/01/17 07:55:22;;;;;;;5.18;4.65;;;;;;;;;;5074048;28;20193;-61
2024/01/17 07:57:49;;;;;;;8.88;4.82;;;;;;;;;;5074731;28;20203;-60
2024/01/17 08:00:18;;;;;;;8.30;4.60;;;;;;;;;;5074462;28;20228;-61
2024/01/17 08:02:45;;;;;;;5.10;3.97;;;;;;;;;;5074717;28;20189;-60
2024/01/17 08:05:12;;;;;;;4.10;3.80;;;;;;;;;;5074483;28;20227;-60
2024/01/17 08:07:39;;;;;;;4.28;3.85;;;;;;;;;;5074405;28;20193;-61
2024/01/17 08:10:07;;;;;;;5.03;4.25;;;;;;;;;;5074285;28;20272;-61
2024/01/17 08:12:34;;;;;;;4.25;3.85;;;;;;;;;;5074190;28;20280;-61
2024/01/17 08:15:01;;;;;;;5.82;4.75;;;;;;;;;;5074212;28;20207;-61
2024/01/17 08:17:28;;;;;;;4.60;4.20;;;;;;;;;;5074466;28;20189;-61
2024/01/17 08:19:55;;;;;;;7.00;4.60;;;;;;;;;;5074100;28;20272;-61
2024/01/17 08:22:22;;;;;;;5.82;4.05;;;;;;;;;;5074144;28;20280;-61
2024/01/17 08:24:49;;;;;;;5.00;4.28;;;;;;;;;;5074059;28;20213;-61
2024/01/17 08:27:18;;;;;;;5.80;4.60;;;;;;;;;;5074138;28;20281;-61
2024/01/17 08:29:45;;;;;;;4.80;4.40;;;;;;;;;;5073946;28;20192;-61
2024/01/17 08:32:12;;;;;;;6.40;5.35;;;;;;;;;;5074149;28;20601;-62
2024/01/17 08:34:39;;;;;;;7.00;4.40;;;;;;;;;;5074097;28;20637;-61
2024/01/17 08:37:05;;;;;;;10.40;5.13;;;;;;;;;;5073884;28;20196;-61
2024/01/17 08:39:32;;;;;;;7.18;4.55;;;;;;;;;;5073889;28;20185;-61
2024/01/17 08:41:59;;;;;;;7.43;5.63;;;;;;;;;;5073781;28;20273;-61
2024/01/17 08:44:28;;;;;;;6.35;5.05;;;;;;;;;;5073645;28;20201;-61
2024/01/17 08:46:56;;;;;;;8.13;4.78;;;;;;;;;;5073666;28;20200;-62
2024/01/17 08:49:23;;;;;;;7.10;5.00;;;;;;;;;;5073739;28;20185;-61
2024/01/17 08:51:50;;;;;;;5.38;4.82;;;;;;;;;;5073452;28;20282;-61
2024/01/17 08:54:17;;;;;;;6.47;4.68;;;;;;;;;;5073400;28;20216;-61
2024/01/17 08:56:46;;;;;;;6.72;5.43;;;;;;;;;;5073400;28;20285;-61
2024/01/17 08:59:13;;;;;;;5.53;4.60;;;;;;;;;;5073659;28;20744;-61
2024/01/17 09:01:41;;;;;;;6.10;5.03;;;;;;;;;;5073508;28;20235;-62
2024/01/17 09:04:08;;;;;;;6.13;4.85;;;;;;;;;;5073431;28;20280;-61
2024/01/17 09:06:35;;;;;;;9.65;5.47;;;;;;;;;;5073286;28;20303;-61
2024/01/17 09:09:03;;;;;;;5.72;4.40;;;;;;;;;;5073328;28;20857;-62
2024/01/17 09:11:31;;;;;;;10.23;5.28;;;;;;;;;;5073239;28;20648;-62
2024/01/17 09:13:58;;;;;;;6.07;5.40;;;;;;;;;;5073409;28;20189;-62
2024/01/17 09:16:25;;;;;;;8.88;5.47;;;;;;;;;;5073354;28;20538;-62
2024/01/17 09:18:54;;;;;;;6.07;4.75;;;;;;;;;;5073215;28;20284;-61
2024/01/17 09:21:21;;;;;;;8.10;5.80;;;;;;;;;;5073231;28;20307;-61
2024/01/17 09:23:48;;;;;;;5.78;4.75;;;;;;;;;;5072975;28;20638;-62
2024/01/17 09:26:15;;;;;;;6.72;5.22;;;;;;;;;;5072899;28;20256;-61
2024/01/17 09:28:42;;;;;;;6.70;5.25;;;;;;;;;;5073091;28;20280;-61
2024/01/17 09:31:09;;;;;;;7.80;4.90;;;;;;;;;;5073076;28;20617;-61
2024/01/17 09:33:36;;;;;;;6.32;5.72;;;;;;;;;;5073047;28;20193;-61
2024/01/17 09:36:05;;;;;;;9.60;6.30;;;;;;;;;;5072922;28;20280;-62
2024/01/17 09:38:32;;;;;;;8.10;5.47;;;;;;;;;;5072887;28;20661;-61
2024/01/17 09:40:59;;;;;;;7.32;5.45;;;;;;;;;;5073091;28;20379;-62
2024/01/17 09:43:26;;;;;;;11.40;6.13;;;;;;;;;;5072988;28;20189;-62
2024/01/17 09:45:56;;;;;;;7.30;5.57;;;;;;;;;;5072818;28;20308;-61
2024/01/17 09:48:25;;;;;;;9.00;5.57;;;;;;;;;;5072884;28;20193;-61
2024/01/17 09:50:52;;;;;;;9.85;5.78;;;;;;;;;;5072715;28;20193;-62
2024/01/17 09:53:26;;;;;;;7.30;5.10;;;;;;;;;;5072822;28;20743;-62
2024/01/17 09:55:53;;;;;;;9.85;6.38;;;;;;;;;;5072953;28;20192;-61
2024/01/17 09:58:21;;;;;;;8.82;5.68;;;;;;;;;;5072748;28;20193;-62
2024/01/17 10:00:48;;;;;;;9.90;6.05;;;;;;;;;;5072693;28;20197;-61
2024/01/17 10:03:20;;;;;;;7.55;5.43;;;;;;;;;;5072555;28;20279;-62
2024/01/17 10:05:48;;;;;;;8.95;6.32;;;;;;;;;;5072723;28;20213;-62
2024/01/17 10:08:16;;;;;;;9.07;5.68;;;;;;;;;;5072830;28;20276;-62
2024/01/17 10:10:44;;;;;;;13.30;6.00;;;;;;;;;;5072579;28;20189;-61
2024/01/17 10:13:11;;;;;;;9.32;5.45;;;;;;;;;;5072525;28;20640;-61
2024/01/17 10:15:40;;;;;;;6.82;5.63;;;;;;;;;;5072552;28;20185;-62
2024/01/17 10:18:07;;;;;;;9.27;6.78;;;;;;;;;;5073141;28;20189;-61
2024/01/17 10:20:34;;;;;;;11.48;7.00;;;;;;;;;;5076519;28;20661;-61
2024/01/17 10:23:03;;;;;;;11.02;5.75;;;;;;;;;;5076552;28;20186;-61
2024/01/17 10:25:37;;;;;;;10.15;5.80;;;;;;;;;;5076527;28;20208;-62
2024/01/17 10:28:06;;;;;;;6.88;5.38;;;;;;;;;;5076427;28;20189;-61
2024/01/17 10:30:32;;;;;;;6.15;5.55;;;;;;;;;;5076268;28;20288;-62
2024/01/17 10:32:59;;;;;;;10.90;6.75;;;;;;;;;;5076429;28;20200;-62
2024/01/17 10:35:27;;;;;;;10.35;5.95;;;;;;;;;;5076188;28;20224;-62
2024/01/17 10:37:54;;;;;;;7.63;5.53;;;;;;;;;;5076117;28;20199;-62
2024/01/17 10:40:21;;;;;;;9.38;5.35;;;;;;;;;;5076222;28;20193;-62
2024/01/17 10:42:48;;;;;;;6.45;5.80;;;;;;;;;;5075990;28;20185;-62
2024/01/17 10:45:23;;;;;;;7.95;5.72;;;;;;;;;;5076100;28;20228;-62
2024/01/17 10:47:50;;;;;;;9.00;5.75;;;;;;;;;;5076015;28;20196;-62
2024/01/17 10:50:20;;;;;;;9.52;5.05;;;;;;;;;;5076029;28;20211;-62
2024/01/17 10:52:48;;;;;;;5.32;4.80;;;;;;;;;;5076247;28;20186;-62
2024/01/17 10:55:16;;;;;;;10.30;5.72;;;;;;;;;;5075737;28;20193;-62
2024/01/17 10:57:43;;;;;;;7.70;5.75;;;;;;;;;;5075695;28;20227;-62
2024/01/17 11:00:16;;;;;;;9.18;5.93;;;;;;;;;;5075899;28;20217;-62
2024/01/17 11:02:45;;;;;;;8.23;6.53;;;;;;;;;;5075823;28;20200;-62
2024/01/17 11:05:15;;;;;;;10.20;5.70;;;;;;;;;;5075590;28;20246;-62
2024/01/17 11:07:42;;;;;;;10.23;6.50;;;;;;;;;;5075687;28;20196;-62
2024/01/17 11:10:10;;;;;;;5.93;4.88;;;;;;;;;;5075544;28;20202;-62
2024/01/17 11:12:38;;;;;;;9.35;5.65;;;;;;;;;;5075651;28;20619;-62
2024/01/17 11:15:05;;;;;;;9.38;6.55;;;;;;;;;;5075595;28;20185;-62
2024/01/17 11:17:35;;;;;;;6.75;5.50;;;;;;;;;;5075555;28;20514;-62
2024/01/17 11:20:06;;;;;;;8.70;6.13;;;;;;;;;;5075544;28;20306;-62
2024/01/17 11:22:34;;;;;;;6.15;5.50;;;;;;;;;;5075336;28;20280;-62
2024/01/17 11:25:03;;;;;;;15.60;6.20;;;;;;;;;;5075447;28;20194;-61
2024/01/17 11:27:34;;;;;;;7.85;5.47;;;;;;;;;;5075404;28;20189;-62
2024/01/17 11:30:06;;;;;;;7.80;5.20;;;;;;;;;;5074112;28;20276;-62
2024/01/17 11:32:42;;;;;;;7.88;6.45;;;;;;;;;;5075252;28;20622;-62
2024/01/17 11:35:10;;;;;;;6.97;5.05;;;;;;;;;;5075063;28;20280;-62
2024/01/17 11:37:39;;;;;;;8.10;5.75;;;;;;;;;;5075253;28;20281;-62
2024/01/17 11:40:07;;;;;;;7.47;6.15;;;;;;;;;;5074979;28;20657;-62
2024/01/17 11:42:35;;;;;;;9.90;5.43;;;;;;;;;;5075065;28;20200;-62
2024/01/17 11:45:03;;;;;;;7.45;4.88;;;;;;;;;;5074899;28;20193;-62
2024/01/17 11:47:30;;;;;;;5.43;4.65;;;;;;;;;;5074714;28;20224;-62
2024/01/17 11:49:59;;;;;;;6.07;5.47;;;;;;;;;;5074947;28;20196;-62
2024/01/17 11:52:29;;;;;;;9.15;4.22;;;;;;;;;;5074846;28;20274;-62
2024/01/17 11:54:56;;;;;;;7.60;5.53;;;;;;;;;;5074702;28;20649;-62
2024/01/17 11:57:26;;;;;;;6.80;5.68;;;;;;;;;;5074617;28;20211;-62
2024/01/17 12:00:07;;;;;;;7.20;5.03;;;;;;;;;;5074654;28;20186;-62
2024/01/17 12:02:37;;;;;;;8.77;5.20;;;;;;;;;;5074570;28;20189;-62
2024/01/17 12:05:05;;;;;;;6.85;5.13;;;;;;;;;;5074660;28;20259;-62
2024/01/17 12:07:37;;;;;;;6.90;5.75;;;;;;;;;;5074459;28;20224;-62
2024/01/17 12:10:08;;;;;;;6.25;5.22;;;;;;;;;;5074507;28;20196;-62
2024/01/17 12:12:35;;;;;;;8.27;4.70;;;;;;;;;;5074362;28;20221;-62
2024/01/17 12:15:02;;;;;;;8.35;5.40;;;;;;;;;;5074519;28;20614;-62
2024/01/17 12:17:29;;;;;;;7.38;4.75;;;;;;;;;;5074402;28;20283;-62
2024/01/17 12:19:56;;;;;;;8.20;5.25;;;;;;;;;;5074229;28;20644;-62
2024/01/17 12:22:23;;;;;;;7.03;4.63;;;;;;;;;;5074157;28;20225;-62
2024/01/17 12:24:51;;;;;;;6.50;4.80;;;;;;;;;;5074048;28;20217;-62
2024/01/17 12:27:18;;;;;;;7.10;5.10;;;;;;;;;;5074205;28;20228;-61
2024/01/17 12:29:50;;;;;;;11.60;5.10;;;;;;;;;;5074212;28;20196;-62
2024/01/17 12:32:16;;;;;;;4.80;4.30;;;;;;;;;;5074173;28;20193;-62
2024/01/17 12:34:44;;;;;;;6.50;4.75;;;;;;;;;;5073901;28;20193;-62
2024/01/17 12:37:11;;;;;;;5.75;5.20;;;;;;;;;;5073793;28;20246;-62
2024/01/17 12:39:38;;;;;;;4.43;4.03;;;;;;;;;;5073678;28;20280;-62
2024/01/17 12:42:06;;;;;;;4.63;4.20;;;;;;;;;;5073415;28;20185;-62
2024/01/17 12:44:33;;;;;;;8.32;5.40;;;;;;;;;;5073770;28;20204;-62
2024/01/17 12:47:00;;;;;;;4.78;4.28;;;;;;;;;;5073484;28;20217;-62
2024/01/17 12:49:28;;;;;;;6.82;4.32;;;;;;;;;;5073953;28;20193;-62
2024/01/17 12:51:55;;;;;;;5.50;4.50;;;;;;;;;;5073595;28;20193;-62
2024/01/17 12:54:24;;;;;;;8.23;4.88;;;;;;;;;;5073661;28;20192;-62
2024/01/17 12:56:53;;;;;;;10.73;5.78;;;;;;;;;;5073628;28;20279;-62
2024/01/17 12:59:21;;;;;;;7.72;4.85;;;;;;;;;;5073557;28;20612;-62
2024/01/17 13:01:48;;;;;;;8.40;4.40;;;;;;;;;;5073419;28;20285;-62
2024/01/17 13:04:15;;;;;;;7.40;4.80;;;;;;;;;;5073307;28;20272;-62
2024/01/17 13:06:45;;;;;;;6.38;4.82;;;;;;;;;;5073040;28;20309;-62
2024/01/17 13:09:14;;;;;;;5.70;4.70;;;;;;;;;;5073528;28;20216;-62
2024/01/17 13:11:41;;;;;;;6.45;4.43;;;;;;;;;;5073311;28;20546;-62
2024/01/17 13:14:08;;;;;;;7.78;5.65;;;;;;;;;;5073297;28;20620;-62
2024/01/17 13:16:36;;;;;;;6.68;5.30;;;;;;;;;;5073063;28;20280;-62
2024/01/17 13:19:10;;;;;;;6.18;5.57;;;;;;;;;;5073001;28;20869;-62
2024/01/17 13:21:37;;;;;;;5.40;4.35;;;;;;;;;;5072823;28;20263;-62
2024/01/17 13:24:04;;;;;;;5.53;5.03;;;;;;;;;;5073203;28;20198;-62
2024/01/17 13:26:35;;;;;;;5.75;4.78;;;;;;;;;;5073001;28;20577;-62
2024/01/17 13:29:02;;;;;;;5.88;4.35;;;;;;;;;;5073050;28;20278;-61
2024/01/17 13:31:29;;;;;;;7.78;5.13;;;;;;;;;;5072874;28;20279;-62
2024/01/17 13:33:58;;;;;;;7.60;4.75;;;;;;;;;;5073144;28;20189;-62
2024/01/17 13:36:25;;;;;;;8.50;5.65;;;;;;;;;;5072840;28;20657;-62
2024/01/17 13:38:52;;;;;;;7.47;5.07;;;;;;;;;;5072996;28;20622;-62
2024/01/17 13:41:21;;;;;;;7.60;5.90;;;;;;;;;;5072948;28;20189;-62
2024/01/17 13:43:48;;;;;;;6.28;4.55;;;;;;;;;;5072833;28;20280;-62
2024/01/17 13:46:15;;;;;;;8.00;5.60;;;;;;;;;;5072611;28;20245;-62
2024/01/17 13:48:42;;;;;;;6.60;5.47;;;;;;;;;;5072712;28;20652;-62
2024/01/17 13:51:12;;;;;;;6.30;5.45;;;;;;;;;;5072918;28;20189;-62
2024/01/17 13:53:41;;;;;;;9.80;5.80;;;;;;;;;;5072233;28;20192;-62
2024/01/17 13:56:10;;;;;;;7.18;5.38;;;;;;;;;;5072695;28;20193;-62
2024/01/17 13:58:37;;;;;;;9.75;6.30;;;;;;;;;;5072631;28;20197;-62
2024/01/17 14:01:05;;;;;;;7.55;5.75;;;;;;;;;;5072566;28;20189;-62
2024/01/17 14:03:33;;;;;;;11.18;6.40;;;;;;;;;;5072736;28;20195;-62
2024/01/17 14:06:00;;;;;;;12.05;7.07;;;;;;;;;;5072415;28;20185;-61
2024/01/17 14:08:28;;;;;;;8.68;6.20;;;;;;;;;;5072462;28;20196;-60
2024/01/17 14:10:56;;;;;;;7.20;5.82;;;;;;;;;;5072405;28;20279;-60
2024/01/17 14:13:23;;;;;;;8.70;6.65;;;;;;;;;;5072288;28;20189;-61
2024/01/17 14:15:50;;;;;;;8.00;6.80;;;;;;;;;;5072599;28;20243;-62
2024/01/17 14:18:17;;;;;;;10.73;7.55;;;;;;;;;;5072592;28;20197;-62
2024/01/17 14:20:44;;;;;;;9.77;6.15;;;;;;;;;;5072237;28;20300;-64
2024/01/17 14:23:11;;;;;;;9.77;6.22;;;;;;;;;;5072270;28;20197;-62
2024/01/17 14:25:39;;;;;;;9.95;6.82;;;;;;;;;;5072235;28;20197;-61
2024/01/17 14:28:07;;;;;;;10.45;6.75;;;;;;;;;;5072015;28;20328;-61
2024/01/17 14:30:34;;;;;;;10.43;7.38;;;;;;;;;;5072452;28;20792;-61
2024/01/17 14:33:01;;;;;;;8.73;6.53;;;;;;;;;;5072041;28;20197;-61
2024/01/17 14:35:29;;;;;;;9.00;6.85;;;;;;;;;;5072284;28;20189;-61
2024/01/17 14:37:56;;;;;;;7.72;6.20;;;;;;;;;;5072118;28;20654;-61
2024/01/17 14:40:23;;;;;;;9.73;6.20;;;;;;;;;;5072119;28;20197;-61
2024/01/17 14:42:52;;;;;;;8.45;6.80;;;;;;;;;;5072329;28;20601;-61